sensor_id;sensor_type;location;lat;lon;timestamp;temperature;humidity
21844;DHT22;11084;52.482;9.108;2022-12-20T00:01:20;6.30;99.90
21844;DHT22;11084;52.482;9.108;2022-12-20T00:03:52;6.30;99.90
21844;DHT22;11084;52.482;9.108;2022-12-20T00:06:19;6.30;99.90
21844;DHT22;11084;52.482;9.108;2022-12-20T00:08:53;6.30;99.90
21844;DHT22;11084;52.482;9.108;2022-12-20T00:13:47;6.30;99.90
21844;DHT22;11084;52.482;9.108;2022-12-20T00:16:17;6.30;99.90
21844;DHT22;11084;52.482;9.108;2022-12-20T00:18:44;6.30;99.90
21844;DHT22;11084;52.482;9.108;2022-12-20T00:21:13;6.30;99.90
21844;DHT22;11084;52.482;9.108;2022-12-20T00:23:40;6.30;99.90
21844;DHT22;11084;52.482;9.108;2022-12-20T00:26:15;6.30;99.90
21844;DHT22;11084;52.482;9.108;2022-12-20T00:28:44;6.30;99.90
21844;DHT22;11084;52.482;9.108;2022-12-20T00:31:13;6.30;99.90
21844;DHT22;11084;52.482;9.108;2022-12-20T00:33:43;6.30;99.90
21844;DHT22;11084;52.482;9.108;2022-12-20T00:41:08;6.30;99.90
21844;DHT22;11084;52.482;9.108;2022-12-20T00:43:37;6.30;99.90
21844;DHT22;11084;52.482;9.108;2022-12-20T00:46:05;6.30;99.90
21844;DHT22;11084;52.482;9.108;2022-12-20T00:48:32;6.30;99.90
21844;DHT22;11084;52.482;9.108;2022-12-20T00:51:00;6.30;99.90
21844;DHT22;11084;52.482;9.108;2022-12-20T01:00:54;6.30;99.90
21844;DHT22;11084;52.482;9.108;2022-12-20T01:05:57;6.30;99.90
21844;DHT22;11084;52.482;9.108;2022-12-20T01:08:26;6.30;99.90
21844;DHT22;11084;52.482;9.108;2022-12-20T01:13:38;6.40;99.90
21844;DHT22;11084;52.482;9.108;2022-12-20T01:16:08;6.40;99.90
21844;DHT22;11084;52.482;9.108;2022-12-20T01:21:12;6.40;99.90
21844;DHT22;11084;52.482;9.108;2022-12-20T01:26:09;6.40;99.90
21844;DHT22;11084;52.482;9.108;2022-12-20T01:28:40;6.50;99.90
21844;DHT22;11084;52.482;9.108;2022-12-20T01:31:12;6.50;99.90
21844;DHT22;11084;52.482;9.108;2022-12-20T01:33:39;6.50;99.90
21844;DHT22;11084;52.482;9.108;2022-12-20T01:36:07;6.50;99.90
21844;DHT22;11084;52.482;9.108;2022-12-20T01:41:03;6.60;99.90
21844;DHT22;11084;52.482;9.108;2022-12-20T01:43:54;6.70;99.90
21844;DHT22;11084;52.482;9.108;2022-12-20T01:46:25;6.70;99.90
21844;DHT22;11084;52.482;9.108;2022-12-20T01:51:53;6.80;99.90
21844;DHT22;11084;52.482;9.108;2022-12-20T01:54:37;6.80;99.90
21844;DHT22;11084;52.482;9.108;2022-12-20T01:57:13;6.80;99.90
21844;DHT22;11084;52.482;9.108;2022-12-20T01:59:44;6.80;99.90
21844;DHT22;11084;52.482;9.108;2022-12-20T02:02:12;6.80;99.90
21844;DHT22;11084;52.482;9.108;2022-12-20T02:04:38;6.80;99.90
21844;DHT22;11084;52.482;9.108;2022-12-20T02:07:05;6.80;99.90
21844;DHT22;11084;52.482;9.108;2022-12-20T02:09:34;6.80;99.90
21844;DHT22;11084;52.482;9.108;2022-12-20T02:12:41;6.90;99.90
21844;DHT22;11084;52.482;9.108;2022-12-20T02:15:24;6.90;99.90
21844;DHT22;11084;52.482;9.108;2022-12-20T02:33:02;6.90;99.90
21844;DHT22;11084;52.482;9.108;2022-12-20T02:35:33;6.90;99.90
21844;DHT22;11084;52.482;9.108;2022-12-20T02:38:22;6.90;99.90
21844;DHT22;11084;52.482;9.108;2022-12-20T02:41:23;6.90;99.90
21844;DHT22;11084;52.482;9.108;2022-12-20T02:44:04;6.90;99.90
21844;DHT22;11084;52.482;9.108;2022-12-20T02:46:53;6.90;99.90
21844;DHT22;11084;52.482;9.108;2022-12-20T02:49:23;6.90;99.90
21844;DHT22;11084;52.482;9.108;2022-12-20T02:51:53;6.90;99.90
21844;DHT22;11084;52.482;9.108;2022-12-20T02:57:01;6.80;99.90
21844;DHT22;11084;52.482;9.108;2022-12-20T02:59:51;6.90;99.90
21844;DHT22;11084;52.482;9.108;2022-12-20T03:02:23;6.80;99.90
21844;DHT22;11084;52.482;9.108;2022-12-20T03:04:50;6.90;99.90
21844;DHT22;11084;52.482;9.108;2022-12-20T03:12:14;6.90;99.90
21844;DHT22;11084;52.482;9.108;2022-12-20T03:14:42;7.00;99.90
21844;DHT22;11084;52.482;9.108;2022-12-20T03:19:37;7.00;99.90
21844;DHT22;11084;52.482;9.108;2022-12-20T03:29:25;7.10;99.90
21844;DHT22;11084;52.482;9.108;2022-12-20T03:41:39;7.20;99.90
21844;DHT22;11084;52.482;9.108;2022-12-20T03:51:28;7.30;99.90
21844;DHT22;11084;52.482;9.108;2022-12-20T03:56:27;7.30;99.90
21844;DHT22;11084;52.482;9.108;2022-12-20T03:58:53;7.40;99.90
21844;DHT22;11084;52.482;9.108;2022-12-20T04:01:25;7.40;99.90
21844;DHT22;11084;52.482;9.108;2022-12-20T04:03:54;7.40;99.90
21844;DHT22;11084;52.482;9.108;2022-12-20T04:06:21;7.50;99.90
21844;DHT22;11084;52.482;9.108;2022-12-20T04:11:23;7.50;99.90
21844;DHT22;11084;52.482;9.108;2022-12-20T04:13:54;7.60;99.90
21844;DHT22;11084;52.482;9.108;2022-12-20T04:16:23;7.60;99.90
21844;DHT22;11084;52.482;9.108;2022-12-20T04:21:29;7.60;99.90
21844;DHT22;11084;52.482;9.108;2022-12-20T04:23:58;7.70;99.90
21844;DHT22;11084;52.482;9.108;2022-12-20T04:33:56;7.80;99.90
21844;DHT22;11084;52.482;9.108;2022-12-20T04:43:57;7.90;99.90
21844;DHT22;11084;52.482;9.108;2022-12-20T04:53:54;7.40;99.90
21844;DHT22;11084;52.482;9.108;2022-12-20T05:06:41;8.00;99.90
21844;DHT22;11084;52.482;9.108;2022-12-20T05:16:29;8.00;99.90
21844;DHT22;11084;52.482;9.108;2022-12-20T05:21:24;7.90;99.90
21844;DHT22;11084;52.482;9.108;2022-12-20T05:27:07;7.90;99.90
21844;DHT22;11084;52.482;9.108;2022-12-20T05:29:33;7.90;99.90
21844;DHT22;11084;52.482;9.108;2022-12-20T05:39:24;7.80;99.90
21844;DHT22;11084;52.482;9.108;2022-12-20T05:44:23;7.80;99.90
21844;DHT22;11084;52.482;9.108;2022-12-20T05:54:24;7.80;99.90
21844;DHT22;11084;52.482;9.108;2022-12-20T06:04:39;7.70;99.90
21844;DHT22;11084;52.482;9.108;2022-12-20T06:07:14;7.70;99.90
21844;DHT22;11084;52.482;9.108;2022-12-20T06:19:34;7.70;99.90
21844;DHT22;11084;52.482;9.108;2022-12-20T06:29:32;7.70;99.90
21844;DHT22;11084;52.482;9.108;2022-12-20T06:42:02;7.70;99.90
21844;DHT22;11084;52.482;9.108;2022-12-20T06:44:28;7.70;99.90
21844;DHT22;11084;52.482;9.108;2022-12-20T06:46:55;7.70;99.90
21844;DHT22;11084;52.482;9.108;2022-12-20T06:54:19;7.70;99.90
21844;DHT22;11084;52.482;9.108;2022-12-20T06:59:12;7.70;99.90
21844;DHT22;11084;52.482;9.108;2022-12-20T07:13:54;7.60;99.90
21844;DHT22;11084;52.482;9.108;2022-12-20T07:16:22;7.60;99.90
21844;DHT22;11084;52.482;9.108;2022-12-20T07:18:50;7.60;99.90
21844;DHT22;11084;52.482;9.108;2022-12-20T07:28:38;7.60;99.90
21844;DHT22;11084;52.482;9.108;2022-12-20T07:33:31;7.60;99.90
21844;DHT22;11084;52.482;9.108;2022-12-20T07:36:06;7.60;99.90
21844;DHT22;11084;52.482;9.108;2022-12-20T07:41:15;7.70;99.90
21844;DHT22;11084;52.482;9.108;2022-12-20T07:43:42;7.70;99.90
21844;DHT22;11084;52.482;9.108;2022-12-20T07:46:11;7.70;99.90
21844;DHT22;11084;52.482;9.108;2022-12-20T07:48:38;7.70;99.90
21844;DHT22;11084;52.482;9.108;2022-12-20T07:51:20;7.70;99.90
21844;DHT22;11084;52.482;9.108;2022-12-20T07:53:58;7.70;99.90
21844;DHT22;11084;52.482;9.108;2022-12-20T07:56:34;7.70;99.90
21844;DHT22;11084;52.482;9.108;2022-12-20T07:59:03;7.70;99.90
21844;DHT22;11084;52.482;9.108;2022-12-20T08:04:01;7.80;99.90
21844;DHT22;11084;52.482;9.108;2022-12-20T08:06:31;7.80;99.90
21844;DHT22;11084;52.482;9.108;2022-12-20T08:08:59;7.80;99.90
21844;DHT22;11084;52.482;9.108;2022-12-20T08:11:28;7.80;99.90
21844;DHT22;11084;52.482;9.108;2022-12-20T08:16:22;7.80;99.90
21844;DHT22;11084;52.482;9.108;2022-12-20T08:31:17;7.90;99.90
21844;DHT22;11084;52.482;9.108;2022-12-20T08:33:43;7.90;99.90
21844;DHT22;11084;52.482;9.108;2022-12-20T08:36:12;7.90;99.90
21844;DHT22;11084;52.482;9.108;2022-12-20T08:38:39;8.00;99.90
21844;DHT22;11084;52.482;9.108;2022-12-20T08:41:08;8.00;99.90
21844;DHT22;11084;52.482;9.108;2022-12-20T08:43:38;8.00;99.90
21844;DHT22;11084;52.482;9.108;2022-12-20T08:46:06;8.00;99.90
21844;DHT22;11084;52.482;9.108;2022-12-20T08:48:33;8.00;99.90
21844;DHT22;11084;52.482;9.108;2022-12-20T08:51:01;8.00;99.90
21844;DHT22;11084;52.482;9.108;2022-12-20T08:53:31;8.00;99.90
21844;DHT22;11084;52.482;9.108;2022-12-20T08:56:09;8.10;99.90
21844;DHT22;11084;52.482;9.108;2022-12-20T08:58:41;8.10;99.90
21844;DHT22;11084;52.482;9.108;2022-12-20T09:01:16;8.10;99.90
21844;DHT22;11084;52.482;9.108;2022-12-20T09:03:44;8.10;99.90
21844;DHT22;11084;52.482;9.108;2022-12-20T09:06:13;8.20;99.90
21844;DHT22;11084;52.482;9.108;2022-12-20T09:08:42;8.20;99.90
21844;DHT22;11084;52.482;9.108;2022-12-20T09:11:20;8.20;99.90
21844;DHT22;11084;52.482;9.108;2022-12-20T09:13:51;8.30;99.90
21844;DHT22;11084;52.482;9.108;2022-12-20T09:16:22;8.30;99.90
21844;DHT22;11084;52.482;9.108;2022-12-20T09:18:50;8.40;99.90
21844;DHT22;11084;52.482;9.108;2022-12-20T09:21:18;8.40;99.90
21844;DHT22;11084;52.482;9.108;2022-12-20T09:23:48;8.40;99.90
21844;DHT22;11084;52.482;9.108;2022-12-20T09:26:17;8.50;99.90
21844;DHT22;11084;52.482;9.108;2022-12-20T09:28:44;8.50;99.90
21844;DHT22;11084;52.482;9.108;2022-12-20T09:31:20;8.50;99.90
21844;DHT22;11084;52.482;9.108;2022-12-20T09:33:47;8.50;99.90
21844;DHT22;11084;52.482;9.108;2022-12-20T09:36:16;8.50;99.90
21844;DHT22;11084;52.482;9.108;2022-12-20T09:38:45;8.60;99.90
21844;DHT22;11084;52.482;9.108;2022-12-20T09:41:37;8.60;99.90
21844;DHT22;11084;52.482;9.108;2022-12-20T09:44:30;8.60;99.90
21844;DHT22;11084;52.482;9.108;2022-12-20T09:47:06;8.80;99.90
21844;DHT22;11084;52.482;9.108;2022-12-20T09:49:50;8.60;99.90
21844;DHT22;11084;52.482;9.108;2022-12-20T09:55:46;8.70;99.90
21844;DHT22;11084;52.482;9.108;2022-12-20T09:58:56;8.70;99.90
21844;DHT22;11084;52.482;9.108;2022-12-20T10:01:33;8.80;99.90
21844;DHT22;11084;52.482;9.108;2022-12-20T10:04:04;8.90;99.90
21844;DHT22;11084;52.482;9.108;2022-12-20T10:15:45;9.00;99.90
21844;DHT22;11084;52.482;9.108;2022-12-20T10:18:46;9.00;99.90
21844;DHT22;11084;52.482;9.108;2022-12-20T10:21:45;9.00;99.90
21844;DHT22;11084;52.482;9.108;2022-12-20T10:24:28;9.10;99.90
21844;DHT22;11084;52.482;9.108;2022-12-20T10:27:18;9.10;99.90
21844;DHT22;11084;52.482;9.108;2022-12-20T10:29:48;9.20;99.90
21844;DHT22;11084;52.482;9.108;2022-12-20T10:32:19;9.20;99.90
21844;DHT22;11084;52.482;9.108;2022-12-20T10:37:35;9.30;99.90
21844;DHT22;11084;52.482;9.108;2022-12-20T10:40:04;9.30;99.90
21844;DHT22;11084;52.482;9.108;2022-12-20T10:42:40;9.30;99.90
21844;DHT22;11084;52.482;9.108;2022-12-20T10:47:44;9.40;99.90
21844;DHT22;11084;52.482;9.108;2022-12-20T10:50:14;9.40;99.90
21844;DHT22;11084;52.482;9.108;2022-12-20T10:52:45;9.50;99.90
21844;DHT22;11084;52.482;9.108;2022-12-20T10:55:37;9.50;99.90
21844;DHT22;11084;52.482;9.108;2022-12-20T10:58:32;9.50;99.90
21844;DHT22;11084;52.482;9.108;2022-12-20T11:01:21;9.60;99.90
21844;DHT22;11084;52.482;9.108;2022-12-20T11:04:02;9.70;99.90
21844;DHT22;11084;52.482;9.108;2022-12-20T11:06:42;9.70;99.90
21844;DHT22;11084;52.482;9.108;2022-12-20T11:09:22;9.80;99.90
21844;DHT22;11084;52.482;9.108;2022-12-20T11:12:03;9.80;99.90
21844;DHT22;11084;52.482;9.108;2022-12-20T11:14:35;9.90;99.90
21844;DHT22;11084;52.482;9.108;2022-12-20T11:17:24;9.90;99.90
21844;DHT22;11084;52.482;9.108;2022-12-20T11:23:47;10.10;99.90
21844;DHT22;11084;52.482;9.108;2022-12-20T11:32:18;10.10;99.90
21844;DHT22;11084;52.482;9.108;2022-12-20T11:40:54;10.20;99.90
21844;DHT22;11084;52.482;9.108;2022-12-20T11:43:46;10.20;99.90
21844;DHT22;11084;52.482;9.108;2022-12-20T11:46:28;10.20;99.90
21844;DHT22;11084;52.482;9.108;2022-12-20T11:55:23;10.30;99.90
21844;DHT22;11084;52.482;9.108;2022-12-20T11:58:12;10.30;99.90
21844;DHT22;11084;52.482;9.108;2022-12-20T12:01:04;10.30;99.90
21844;DHT22;11084;52.482;9.108;2022-12-20T12:03:48;10.30;99.90
21844;DHT22;11084;52.482;9.108;2022-12-20T12:06:41;10.30;99.90
21844;DHT22;11084;52.482;9.108;2022-12-20T12:12:28;10.30;99.90
21844;DHT22;11084;52.482;9.108;2022-12-20T12:18:04;10.30;99.90
21844;DHT22;11084;52.482;9.108;2022-12-20T12:20:58;10.30;99.90
21844;DHT22;11084;52.482;9.108;2022-12-20T12:24:24;10.30;99.90
21844;DHT22;11084;52.482;9.108;2022-12-20T12:26:57;10.30;99.90
21844;DHT22;11084;52.482;9.108;2022-12-20T12:29:27;10.30;99.90
21844;DHT22;11084;52.482;9.108;2022-12-20T12:44:41;10.20;99.90
21844;DHT22;11084;52.482;9.108;2022-12-20T12:47:51;10.30;99.90
21844;DHT22;11084;52.482;9.108;2022-12-20T12:50:28;10.20;99.90
21844;DHT22;11084;52.482;9.108;2022-12-20T12:53:07;10.30;99.90
21844;DHT22;11084;52.482;9.108;2022-12-20T12:55:47;10.20;99.90
21844;DHT22;11084;52.482;9.108;2022-12-20T13:01:03;10.20;99.90
21844;DHT22;11084;52.482;9.108;2022-12-20T13:03:45;10.20;99.90
21844;DHT22;11084;52.482;9.108;2022-12-20T13:06:55;10.20;99.90
21844;DHT22;11084;52.482;9.108;2022-12-20T13:11:59;10.20;99.90
21844;DHT22;11084;52.482;9.108;2022-12-20T13:17:51;10.10;99.90
21844;DHT22;11084;52.482;9.108;2022-12-20T13:20:25;10.10;99.90
21844;DHT22;11084;52.482;9.108;2022-12-20T13:25:53;10.10;99.90
21844;DHT22;11084;52.482;9.108;2022-12-20T13:33:45;10.00;99.90
21844;DHT22;11084;52.482;9.108;2022-12-20T13:36:28;10.00;99.90
21844;DHT22;11084;52.482;9.108;2022-12-20T13:41:49;10.00;99.90
21844;DHT22;11084;52.482;9.108;2022-12-20T13:44:18;9.90;99.90
21844;DHT22;11084;52.482;9.108;2022-12-20T13:47:30;10.00;99.90
21844;DHT22;11084;52.482;9.108;2022-12-20T13:50:23;9.90;99.90
21844;DHT22;11084;52.482;9.108;2022-12-20T13:52:53;9.90;99.90
21844;DHT22;11084;52.482;9.108;2022-12-20T13:55:43;9.90;99.90
21844;DHT22;11084;52.482;9.108;2022-12-20T13:58:33;9.90;99.90
21844;DHT22;11084;52.482;9.108;2022-12-20T14:01:05;9.90;99.90
21844;DHT22;11084;52.482;9.108;2022-12-20T14:03:40;9.90;99.90
21844;DHT22;11084;52.482;9.108;2022-12-20T14:06:13;9.90;99.90
21844;DHT22;11084;52.482;9.108;2022-12-20T14:08:46;9.90;99.90
21844;DHT22;11084;52.482;9.108;2022-12-20T14:11:22;9.80;99.90
21844;DHT22;11084;52.482;9.108;2022-12-20T14:14:00;9.80;99.90
21844;DHT22;11084;52.482;9.108;2022-12-20T14:16:31;9.80;99.90
21844;DHT22;11084;52.482;9.108;2022-12-20T14:19:02;9.80;99.90
21844;DHT22;11084;52.482;9.108;2022-12-20T14:21:38;9.80;99.90
21844;DHT22;11084;52.482;9.108;2022-12-20T14:24:18;9.80;99.90
21844;DHT22;11084;52.482;9.108;2022-12-20T14:26:47;9.80;99.90
21844;DHT22;11084;52.482;9.108;2022-12-20T14:29:28;9.70;99.90
21844;DHT22;11084;52.482;9.108;2022-12-20T14:34:30;9.70;99.90
21844;DHT22;11084;52.482;9.108;2022-12-20T14:37:27;9.60;99.90
21844;DHT22;11084;52.482;9.108;2022-12-20T14:40:13;9.60;99.90
21844;DHT22;11084;52.482;9.108;2022-12-20T14:42:43;9.60;99.90
21844;DHT22;11084;52.482;9.108;2022-12-20T14:48:32;9.60;99.90
21844;DHT22;11084;52.482;9.108;2022-12-20T14:50:52;9.60;99.90
21844;DHT22;11084;52.482;9.108;2022-12-20T14:53:22;9.50;99.90
21844;DHT22;11084;52.482;9.108;2022-12-20T14:58:30;9.50;99.90
21844;DHT22;11084;52.482;9.108;2022-12-20T15:05:56;9.40;99.90
21844;DHT22;11084;52.482;9.108;2022-12-20T15:13:37;9.30;99.90
21844;DHT22;11084;52.482;9.108;2022-12-20T15:16:21;9.30;99.90
21844;DHT22;11084;52.482;9.108;2022-12-20T15:18:50;9.20;99.90
21844;DHT22;11084;52.482;9.108;2022-12-20T15:23:58;9.20;99.90
21844;DHT22;11084;52.482;9.108;2022-12-20T15:26:28;9.20;99.90
21844;DHT22;11084;52.482;9.108;2022-12-20T15:31:23;9.10;99.90
21844;DHT22;11084;52.482;9.108;2022-12-20T15:36:23;9.10;99.90
21844;DHT22;11084;52.482;9.108;2022-12-20T15:38:52;9.10;99.90
21844;DHT22;11084;52.482;9.108;2022-12-20T15:43:56;9.10;99.90
21844;DHT22;11084;52.482;9.108;2022-12-20T15:46:25;9.10;99.90
21844;DHT22;11084;52.482;9.108;2022-12-20T15:48:52;9.10;99.90
21844;DHT22;11084;52.482;9.108;2022-12-20T15:51:48;9.00;99.90
21844;DHT22;11084;52.482;9.108;2022-12-20T15:54:25;9.00;99.90
21844;DHT22;11084;52.482;9.108;2022-12-20T15:56:59;9.00;99.90
21844;DHT22;11084;52.482;9.108;2022-12-20T16:04:29;9.00;99.90
21844;DHT22;11084;52.482;9.108;2022-12-20T16:09:22;8.90;99.90
21844;DHT22;11084;52.482;9.108;2022-12-20T16:11:51;8.90;99.90
21844;DHT22;11084;52.482;9.108;2022-12-20T16:14:19;8.90;99.90
21844;DHT22;11084;52.482;9.108;2022-12-20T16:16:46;8.90;99.90
21844;DHT22;11084;52.482;9.108;2022-12-20T16:19:14;8.90;99.90
21844;DHT22;11084;52.482;9.108;2022-12-20T16:21:49;8.80;99.90
21844;DHT22;11084;52.482;9.108;2022-12-20T16:24:19;8.80;99.90
21844;DHT22;11084;52.482;9.108;2022-12-20T16:26:47;8.80;99.90
21844;DHT22;11084;52.482;9.108;2022-12-20T16:29:14;8.70;99.90
21844;DHT22;11084;52.482;9.108;2022-12-20T16:31:41;8.70;99.90
21844;DHT22;11084;52.482;9.108;2022-12-20T16:34:17;8.80;99.90
21844;DHT22;11084;52.482;9.108;2022-12-20T16:36:45;8.70;99.90
21844;DHT22;11084;52.482;9.108;2022-12-20T16:41:42;8.70;99.90
21844;DHT22;11084;52.482;9.108;2022-12-20T16:44:15;8.70;99.90
21844;DHT22;11084;52.482;9.108;2022-12-20T16:49:09;8.70;99.90
21844;DHT22;11084;52.482;9.108;2022-12-20T16:51:42;8.70;99.90
21844;DHT22;11084;52.482;9.108;2022-12-20T16:54:18;8.70;99.90
21844;DHT22;11084;52.482;9.108;2022-12-20T16:56:46;8.70;99.90
21844;DHT22;11084;52.482;9.108;2022-12-20T16:59:13;8.70;99.90
21844;DHT22;11084;52.482;9.108;2022-12-20T17:01:41;8.70;99.90
21844;DHT22;11084;52.482;9.108;2022-12-20T17:04:13;8.70;99.90
21844;DHT22;11084;52.482;9.108;2022-12-20T17:06:42;8.70;99.90
21844;DHT22;11084;52.482;9.108;2022-12-20T17:09:09;8.70;99.90
21844;DHT22;11084;52.482;9.108;2022-12-20T17:11:35;8.70;99.90
21844;DHT22;11084;52.482;9.108;2022-12-20T17:18:56;8.80;99.90
21844;DHT22;11084;52.482;9.108;2022-12-20T17:23:56;8.80;99.90
21844;DHT22;11084;52.482;9.108;2022-12-20T17:26:26;8.80;99.90
21844;DHT22;11084;52.482;9.108;2022-12-20T17:28:55;8.90;99.90
21844;DHT22;11084;52.482;9.108;2022-12-20T17:31:27;8.90;99.90
21844;DHT22;11084;52.482;9.108;2022-12-20T17:44:23;8.90;99.90
21844;DHT22;11084;52.482;9.108;2022-12-20T17:54:20;9.00;99.90
21844;DHT22;11084;52.482;9.108;2022-12-20T17:56:48;9.00;99.90
21844;DHT22;11084;52.482;9.108;2022-12-20T17:59:16;9.00;99.90
21844;DHT22;11084;52.482;9.108;2022-12-20T18:01:43;9.00;99.90
21844;DHT22;11084;52.482;9.108;2022-12-20T18:04:11;9.00;99.90
21844;DHT22;11084;52.482;9.108;2022-12-20T18:06:39;9.00;99.90
21844;DHT22;11084;52.482;9.108;2022-12-20T18:09:16;9.00;99.90
21844;DHT22;11084;52.482;9.108;2022-12-20T18:11:45;9.00;99.90
21844;DHT22;11084;52.482;9.108;2022-12-20T18:14:12;9.00;99.90
21844;DHT22;11084;52.482;9.108;2022-12-20T18:16:39;9.00;99.90
21844;DHT22;11084;52.482;9.108;2022-12-20T18:19:07;9.00;99.90
21844;DHT22;11084;52.482;9.108;2022-12-20T18:24:01;8.90;99.90
21844;DHT22;11084;52.482;9.108;2022-12-20T18:26:30;8.90;99.90
21844;DHT22;11084;52.482;9.108;2022-12-20T18:28:59;9.00;99.90
21844;DHT22;11084;52.482;9.108;2022-12-20T18:31:28;8.90;99.90
21844;DHT22;11084;52.482;9.108;2022-12-20T18:36:29;9.00;99.90
21844;DHT22;11084;52.482;9.108;2022-12-20T18:38:58;9.00;99.90
21844;DHT22;11084;52.482;9.108;2022-12-20T18:41:27;9.00;99.90
21844;DHT22;11084;52.482;9.108;2022-12-20T18:44:00;9.00;99.90
21844;DHT22;11084;52.482;9.108;2022-12-20T18:46:28;8.90;99.90
21844;DHT22;11084;52.482;9.108;2022-12-20T18:48:56;8.90;99.90
21844;DHT22;11084;52.482;9.108;2022-12-20T18:51:26;8.90;99.90
21844;DHT22;11084;52.482;9.108;2022-12-20T18:53:56;8.90;99.90
21844;DHT22;11084;52.482;9.108;2022-12-20T18:56:28;8.90;99.90
21844;DHT22;11084;52.482;9.108;2022-12-20T18:58:56;8.90;99.90
21844;DHT22;11084;52.482;9.108;2022-12-20T19:01:33;8.90;99.90
21844;DHT22;11084;52.482;9.108;2022-12-20T19:04:01;8.90;99.90
21844;DHT22;11084;52.482;9.108;2022-12-20T19:09:00;8.90;99.90
21844;DHT22;11084;52.482;9.108;2022-12-20T19:11:26;8.80;99.90
21844;DHT22;11084;52.482;9.108;2022-12-20T19:13:54;8.80;99.90
21844;DHT22;11084;52.482;9.108;2022-12-20T19:16:27;8.80;99.90
21844;DHT22;11084;52.482;9.108;2022-12-20T19:24:02;8.80;99.90
21844;DHT22;11084;52.482;9.108;2022-12-20T19:26:32;8.80;99.90
21844;DHT22;11084;52.482;9.108;2022-12-20T19:31:29;8.80;99.90
21844;DHT22;11084;52.482;9.108;2022-12-20T19:34:02;8.80;99.90
21844;DHT22;11084;52.482;9.108;2022-12-20T19:36:42;8.80;99.90
21844;DHT22;11084;52.482;9.108;2022-12-20T19:39:16;8.70;99.90
21844;DHT22;11084;52.482;9.108;2022-12-20T19:41:44;8.70;99.90
21844;DHT22;11084;52.482;9.108;2022-12-20T19:44:11;8.70;99.90
21844;DHT22;11084;52.482;9.108;2022-12-20T19:49:06;8.70;99.90
21844;DHT22;11084;52.482;9.108;2022-12-20T19:51:32;8.70;99.90
21844;DHT22;11084;52.482;9.108;2022-12-20T19:53:58;8.70;99.90
21844;DHT22;11084;52.482;9.108;2022-12-20T19:56:27;8.70;99.90
21844;DHT22;11084;52.482;9.108;2022-12-20T19:58:55;8.60;99.90
21844;DHT22;11084;52.482;9.108;2022-12-20T20:01:22;8.60;99.90
21844;DHT22;11084;52.482;9.108;2022-12-20T20:03:50;8.60;99.90
21844;DHT22;11084;52.482;9.108;2022-12-20T20:11:14;8.60;99.90
21844;DHT22;11084;52.482;9.108;2022-12-20T20:13:43;8.60;99.90
21844;DHT22;11084;52.482;9.108;2022-12-20T20:18:37;8.50;99.90
21844;DHT22;11084;52.482;9.108;2022-12-20T20:21:10;8.50;99.90
21844;DHT22;11084;52.482;9.108;2022-12-20T20:26:08;8.50;99.90
21844;DHT22;11084;52.482;9.108;2022-12-20T20:31:03;8.40;99.90
21844;DHT22;11084;52.482;9.108;2022-12-20T20:33:30;8.40;99.90
21844;DHT22;11084;52.482;9.108;2022-12-20T20:35:58;8.40;99.90
21844;DHT22;11084;52.482;9.108;2022-12-20T20:50:39;8.30;99.90
21844;DHT22;11084;52.482;9.108;2022-12-20T20:53:06;8.30;99.90
21844;DHT22;11084;52.482;9.108;2022-12-20T20:55:33;8.30;99.90
21844;DHT22;11084;52.482;9.108;2022-12-20T21:05:20;8.30;99.90
21844;DHT22;11084;52.482;9.108;2022-12-20T21:10:13;8.20;99.90
21844;DHT22;11084;52.482;9.108;2022-12-20T21:12:39;8.20;99.90
21844;DHT22;11084;52.482;9.108;2022-12-20T21:15:05;8.20;99.90
21844;DHT22;11084;52.482;9.108;2022-12-20T21:17:33;8.20;99.90
21844;DHT22;11084;52.482;9.108;2022-12-20T21:24:52;8.10;99.90
21844;DHT22;11084;52.482;9.108;2022-12-20T21:27:18;8.10;99.90
21844;DHT22;11084;52.482;9.108;2022-12-20T21:32:12;8.10;99.90
21844;DHT22;11084;52.482;9.108;2022-12-20T21:37:04;8.10;99.90
21844;DHT22;11084;52.482;9.108;2022-12-20T21:41:59;8.10;99.90
21844;DHT22;11084;52.482;9.108;2022-12-20T21:44:25;8.10;99.90
21844;DHT22;11084;52.482;9.108;2022-12-20T21:46:51;8.10;99.90
21844;DHT22;11084;52.482;9.108;2022-12-20T21:51:43;8.10;99.90
21844;DHT22;11084;52.482;9.108;2022-12-20T21:54:11;8.10;99.90
21844;DHT22;11084;52.482;9.108;2022-12-20T21:56:36;8.00;99.90
21844;DHT22;11084;52.482;9.108;2022-12-20T22:01:30;8.10;99.90
21844;DHT22;11084;52.482;9.108;2022-12-20T22:04:01;8.10;99.90
21844;DHT22;11084;52.482;9.108;2022-12-20T22:06:29;8.10;99.90
21844;DHT22;11084;52.482;9.108;2022-12-20T22:09:00;8.00;99.90
21844;DHT22;11084;52.482;9.108;2022-12-20T22:16:25;8.50;99.90
21844;DHT22;11084;52.482;9.108;2022-12-20T22:19:00;8.10;99.90
21844;DHT22;11084;52.482;9.108;2022-12-20T22:21:28;8.00;99.90
21844;DHT22;11084;52.482;9.108;2022-12-20T22:26:25;8.00;99.90
21844;DHT22;11084;52.482;9.108;2022-12-20T22:28:57;8.10;99.90
21844;DHT22;11084;52.482;9.108;2022-12-20T22:31:26;8.00;99.90
21844;DHT22;11084;52.482;9.108;2022-12-20T22:33:53;8.00;99.90
21844;DHT22;11084;52.482;9.108;2022-12-20T22:41:28;8.00;99.90
21844;DHT22;11084;52.482;9.108;2022-12-20T22:43:58;8.00;99.90
21844;DHT22;11084;52.482;9.108;2022-12-20T22:46:24;8.00;99.90
21844;DHT22;11084;52.482;9.108;2022-12-20T22:48:50;8.00;99.90
21844;DHT22;11084;52.482;9.108;2022-12-20T22:51:20;8.00;99.90
21844;DHT22;11084;52.482;9.108;2022-12-20T22:53:48;8.00;99.90
21844;DHT22;11084;52.482;9.108;2022-12-20T22:56:16;8.00;99.90
21844;DHT22;11084;52.482;9.108;2022-12-20T22:58:44;8.00;99.90
21844;DHT22;11084;52.482;9.108;2022-12-20T23:01:12;8.00;99.90
21844;DHT22;11084;52.482;9.108;2022-12-20T23:03:40;8.00;99.90
21844;DHT22;11084;52.482;9.108;2022-12-20T23:06:09;8.00;99.90
21844;DHT22;11084;52.482;9.108;2022-12-20T23:08:37;8.00;99.90
21844;DHT22;11084;52.482;9.108;2022-12-20T23:11:08;8.00;99.90
21844;DHT22;11084;52.482;9.108;2022-12-20T23:14:01;8.00;99.90
21844;DHT22;11084;52.482;9.108;2022-12-20T23:16:46;8.00;99.90
21844;DHT22;11084;52.482;9.108;2022-12-20T23:19:12;8.00;99.90
21844;DHT22;11084;52.482;9.108;2022-12-20T23:21:38;8.00;99.90
21844;DHT22;11084;52.482;9.108;2022-12-20T23:24:23;8.00;99.90
21844;DHT22;11084;52.482;9.108;2022-12-20T23:26:49;8.00;99.90
21844;DHT22;11084;52.482;9.108;2022-12-20T23:36:34;8.10;99.90
21844;DHT22;11084;52.482;9.108;2022-12-20T23:39:00;8.10;99.90
21844;DHT22;11084;52.482;9.108;2022-12-20T23:43:53;8.10;99.90
21844;DHT22;11084;52.482;9.108;2022-12-20T23:48:51;8.10;99.90
21844;DHT22;11084;52.482;9.108;2022-12-20T23:51:19;8.10;99.90
21844;DHT22;11084;52.482;9.108;2022-12-20T23:56:13;8.20;99.90
21844;DHT22;11084;52.482;9.108;2022-12-20T23:58:44;8.20;99.90
